createdAt,value
2022-12-18T00:01:27.788Z,76.01
2022-12-18T00:03:58.765Z,76.39
2022-12-18T00:06:27.318Z,76.38
2022-12-18T00:08:55.314Z,77.20
2022-12-18T00:11:26.519Z,77.47
2022-12-18T00:13:57.574Z,76.99
2022-12-18T00:16:28.571Z,78.06
2022-12-18T00:18:57.838Z,79.57
2022-12-18T00:21:27.550Z,77.17
2022-12-18T00:24:02.190Z,77.89
2022-12-18T00:26:33.287Z,77.06
2022-12-18T00:29:14.724Z,78.18
2022-12-18T00:31:42.755Z,77.75
2022-12-18T00:34:13.753Z,77.63
2022-12-18T00:36:41.821Z,78.31
2022-12-18T00:39:11.398Z,79.07
2022-12-18T00:41:56.087Z,79.13
2022-12-18T00:44:24.755Z,78.78
2022-12-18T00:46:53.668Z,77.76
2022-12-18T00:49:21.198Z,78.63
2022-12-18T00:51:48.733Z,79.39
2022-12-18T00:54:16.071Z,78.05
2022-12-18T00:56:49.027Z,78.53
2022-12-18T00:59:21.226Z,77.81
2022-12-18T01:01:48.174Z,78.30
2022-12-18T01:04:17.890Z,79.03
2022-12-18T01:06:44.849Z,79.91
2022-12-18T01:09:14.043Z,79.02
2022-12-18T01:11:40.688Z,79.34
2022-12-18T01:14:09.954Z,80.56
2022-12-18T01:16:36.721Z,79.71
2022-12-18T01:19:03.304Z,80.65
2022-12-18T01:21:29.808Z,78.01
2022-12-18T01:23:57.593Z,79.34
2022-12-18T01:26:30.495Z,80.96
2022-12-18T01:28:57.996Z,81.34
2022-12-18T01:31:28.305Z,80.87
2022-12-18T01:33:58.127Z,81.18
2022-12-18T01:36:31.122Z,78.57
2022-12-18T01:38:59.942Z,78.36
2022-12-18T01:41:52.192Z,80.12
2022-12-18T01:44:59.928Z,79.27
2022-12-18T01:47:49.113Z,79.30
2022-12-18T01:50:19.943Z,79.43
2022-12-18T01:52:53.846Z,80.16
2022-12-18T01:55:25.911Z,79.58
2022-12-18T01:57:58.906Z,80.43
2022-12-18T02:00:27.816Z,80.57
2022-12-18T02:02:55.296Z,81.48
2022-12-18T02:05:50.423Z,78.52
2022-12-18T02:08:27.249Z,80.56
2022-12-18T02:11:07.965Z,79.05
2022-12-18T02:13:41.947Z,80.51
2022-12-18T02:16:25.615Z,80.98
2022-12-18T02:18:58.937Z,81.32
2022-12-18T02:21:32.250Z,81.19
2022-12-18T02:24:08.128Z,82.43
2022-12-18T02:26:46.568Z,81.92
2022-12-18T02:29:25.223Z,80.48
2022-12-18T02:32:00.309Z,80.95
2022-12-18T02:34:33.198Z,79.92
2022-12-18T02:37:03.115Z,78.55
2022-12-18T02:39:34.381Z,79.44
2022-12-18T02:42:08.773Z,80.60
2022-12-18T02:44:50.322Z,81.04
2022-12-18T02:47:22.093Z,79.46
2022-12-18T02:50:10.611Z,79.12
2022-12-18T02:52:47.010Z,79.98
2022-12-18T02:55:31.990Z,80.65
2022-12-18T02:58:09.554Z,81.68
2022-12-18T03:00:49.706Z,80.43
2022-12-18T03:03:31.212Z,80.60
2022-12-18T03:06:05.405Z,81.36
2022-12-18T03:08:38.850Z,81.83
2022-12-18T03:11:12.704Z,80.89
2022-12-18T03:13:49.523Z,80.63
2022-12-18T03:16:26.624Z,81.46
2022-12-18T03:19:00.021Z,80.27
2022-12-18T03:21:48.684Z,80.66
2022-12-18T03:24:17.014Z,80.20
2022-12-18T03:26:50.292Z,81.35
2022-12-18T03:29:25.303Z,80.36
2022-12-18T03:32:01.617Z,81.76
2022-12-18T03:34:34.733Z,82.71
2022-12-18T03:37:04.998Z,81.14
2022-12-18T03:39:37.436Z,80.83
2022-12-18T03:42:20.322Z,80.66
2022-12-18T03:45:01.462Z,79.52
2022-12-18T03:47:43.411Z,80.76
2022-12-18T03:50:22.691Z,81.46
2022-12-18T03:53:01.423Z,80.98
2022-12-18T03:55:30.552Z,83.56
2022-12-18T03:57:58.845Z,84.29
2022-12-18T04:00:25.419Z,84.92
2022-12-18T04:02:54.936Z,84.54
2022-12-18T04:05:25.295Z,82.25
2022-12-18T04:07:58.166Z,82.51
2022-12-18T04:10:24.737Z,84.11
2022-12-18T04:12:51.255Z,84.24
2022-12-18T04:15:22.828Z,83.18
2022-12-18T04:17:50.669Z,83.68
2022-12-18T04:20:18.081Z,85.33
2022-12-18T04:22:44.621Z,84.15
2022-12-18T04:25:13.650Z,83.56
2022-12-18T04:27:42.669Z,84.34
2022-12-18T04:30:09.790Z,83.01
2022-12-18T04:32:36.369Z,81.98
2022-12-18T04:35:07.581Z,82.15
2022-12-18T04:37:34.100Z,82.61
2022-12-18T04:40:02.970Z,81.58
2022-12-18T04:42:31.831Z,81.91
2022-12-18T04:44:58.298Z,82.44
2022-12-18T04:47:24.818Z,81.97
2022-12-18T04:49:51.295Z,79.92
2022-12-18T04:52:20.210Z,80.75
2022-12-18T04:54:49.187Z,83.09
2022-12-18T04:57:15.727Z,83.43
2022-12-18T04:59:42.230Z,84.67
2022-12-18T05:02:08.835Z,84.24
2022-12-18T05:04:35.405Z,81.62
2022-12-18T05:07:04.141Z,81.46
2022-12-18T05:09:32.874Z,80.58
2022-12-18T05:12:01.688Z,81.29
2022-12-18T05:14:30.145Z,81.85
2022-12-18T05:17:01.096Z,82.58
2022-12-18T05:19:28.072Z,81.37
2022-12-18T05:21:54.607Z,81.81
2022-12-18T05:24:21.096Z,80.74
2022-12-18T05:26:47.654Z,80.87
2022-12-18T05:29:17.220Z,82.04
2022-12-18T05:31:43.662Z,82.45
2022-12-18T05:34:13.443Z,83.27
2022-12-18T05:36:42.804Z,82.90
2022-12-18T05:39:14.128Z,82.07
2022-12-18T05:41:43.483Z,81.81
2022-12-18T05:44:12.981Z,81.64
2022-12-18T05:46:44.384Z,80.95
2022-12-18T05:49:10.901Z,80.82
2022-12-18T05:51:37.499Z,81.57
2022-12-18T05:54:06.303Z,82.50
2022-12-18T05:56:33.125Z,83.91
2022-12-18T05:59:02.151Z,83.69
2022-12-18T06:01:32.038Z,91.32
2022-12-18T06:03:59.120Z,83.71
2022-12-18T06:06:29.868Z,80.81
2022-12-18T06:08:57.927Z,81.95
2022-12-18T06:11:26.990Z,82.23
2022-12-18T06:14:00.252Z,81.20
2022-12-18T06:16:31.205Z,81.27
2022-12-18T06:19:01.142Z,81.48
2022-12-18T06:21:29.694Z,81.51
2022-12-18T06:23:56.574Z,83.02
2022-12-18T06:26:28.033Z,80.40
2022-12-18T06:28:56.146Z,80.16
2022-12-18T06:31:25.120Z,81.73
2022-12-18T06:33:51.723Z,81.82
2022-12-18T06:36:18.376Z,82.94
2022-12-18T06:38:47.416Z,83.17
2022-12-18T06:41:17.361Z,82.13
2022-12-18T06:43:46.542Z,82.31
2022-12-18T06:46:13.706Z,82.43
2022-12-18T06:48:42.871Z,84.05
2022-12-18T06:51:11.620Z,84.48
2022-12-18T06:53:38.477Z,84.17
2022-12-18T06:56:10.226Z,83.96
2022-12-18T06:58:38.211Z,85.55
2022-12-18T07:01:09.951Z,85.79
2022-12-18T07:03:39.763Z,85.01
2022-12-18T07:06:09.400Z,83.61
2022-12-18T07:08:35.978Z,84.20
2022-12-18T07:11:06.685Z,83.26
2022-12-18T07:13:33.219Z,83.66
2022-12-18T07:16:24.815Z,84.98
2022-12-18T07:18:52.787Z,84.35
2022-12-18T07:21:23.098Z,84.33
2022-12-18T07:23:49.767Z,84.32
2022-12-18T07:26:19.182Z,82.79
2022-12-18T07:28:45.992Z,81.94
2022-12-18T07:31:18.911Z,80.92
2022-12-18T07:33:46.675Z,80.99
2022-12-18T07:36:14.312Z,81.30
2022-12-18T07:38:43.078Z,83.02
2022-12-18T07:41:12.545Z,83.34
2022-12-18T07:43:39.618Z,82.32
2022-12-18T07:46:07.233Z,83.00
2022-12-18T07:48:33.926Z,82.14
2022-12-18T07:51:05.290Z,83.42
2022-12-18T07:53:32.655Z,82.01
2022-12-18T07:58:56.126Z,81.55
2022-12-18T08:01:25.803Z,82.05
2022-12-18T08:03:54.888Z,82.23
2022-12-18T08:06:23.290Z,81.86
2022-12-18T08:08:57.830Z,81.20
2022-12-18T08:11:26.700Z,80.08
2022-12-18T08:13:54.144Z,79.87
2022-12-18T08:16:21.892Z,79.52
2022-12-18T08:18:49.438Z,80.62
2022-12-18T08:21:27.328Z,81.22
2022-12-18T08:23:58.075Z,80.68
2022-12-18T08:26:31.643Z,80.83
2022-12-18T08:29:01.324Z,79.72
2022-12-18T08:31:32.067Z,80.23
2022-12-18T08:33:58.851Z,79.94
2022-12-18T08:36:27.795Z,79.28
2022-12-18T08:38:57.566Z,78.57
2022-12-18T08:41:24.758Z,78.72
2022-12-18T08:44:09.894Z,79.66
2022-12-18T08:46:44.219Z,78.69
2022-12-18T08:49:12.269Z,79.29
2022-12-18T08:51:39.449Z,79.10
2022-12-18T08:54:08.674Z,78.14
2022-12-18T08:56:35.380Z,77.27
2022-12-18T08:59:07.325Z,77.19
2022-12-18T09:01:34.572Z,87.83
2022-12-18T09:04:07.623Z,85.51
2022-12-18T09:06:34.954Z,76.38
2022-12-18T09:09:04.953Z,75.33
2022-12-18T09:11:34.943Z,74.82
2022-12-18T09:14:05.271Z,74.97
2022-12-18T09:16:33.411Z,76.53
2022-12-18T09:19:01.205Z,74.86
2022-12-18T09:21:37.215Z,74.84
2022-12-18T09:24:05.127Z,75.02
2022-12-18T09:26:38.581Z,75.98
2022-12-18T09:29:08.691Z,77.00
2022-12-18T09:31:35.332Z,74.71
2022-12-18T09:34:04.160Z,74.05
2022-12-18T09:36:30.991Z,74.16
2022-12-18T09:38:57.711Z,73.86
2022-12-18T09:41:48.900Z,72.42
2022-12-18T09:44:21.232Z,72.74
2022-12-18T09:47:12.924Z,74.62
2022-12-18T09:52:34.411Z,74.43
2022-12-18T09:55:24.866Z,73.74
2022-12-18T09:58:00.137Z,75.31
2022-12-18T10:00:29.282Z,75.12
2022-12-18T10:03:10.030Z,74.45
2022-12-18T10:06:01.866Z,73.58
2022-12-18T10:08:40.788Z,73.55
2022-12-18T10:11:19.432Z,72.72
2022-12-18T10:13:54.665Z,74.34
2022-12-18T10:16:45.002Z,71.50
2022-12-18T10:19:20.301Z,71.87
2022-12-18T10:22:13.381Z,70.51
2022-12-18T10:24:46.450Z,70.50
2022-12-18T10:27:22.544Z,71.39
2022-12-18T10:29:51.583Z,69.70
2022-12-18T10:32:29.558Z,69.57
2022-12-18T10:35:00.801Z,68.72
2022-12-18T10:37:31.031Z,70.14
2022-12-18T10:40:21.900Z,70.15
2022-12-18T10:43:09.194Z,70.39
2022-12-18T10:45:36.087Z,68.69
2022-12-18T10:48:07.364Z,67.97
2022-12-18T10:51:09.214Z,68.33
2022-12-18T10:53:30.721Z,69.01
2022-12-18T10:55:59.936Z,66.11
2022-12-18T10:58:35.912Z,64.59
2022-12-18T11:01:07.543Z,65.93
2022-12-18T11:03:57.707Z,67.77
2022-12-18T11:06:28.962Z,66.41
2022-12-18T11:09:12.212Z,66.50
2022-12-18T11:11:42.224Z,66.42
2022-12-18T11:14:25.037Z,66.53
2022-12-18T11:19:45.644Z,66.32
2022-12-18T11:22:27.821Z,65.63
2022-12-18T11:25:30.807Z,64.81
2022-12-18T11:27:52.367Z,65.89
2022-12-18T11:30:30.430Z,65.52
2022-12-18T11:33:02.304Z,64.43
2022-12-18T11:35:36.930Z,65.29
2022-12-18T11:38:25.158Z,66.01
2022-12-18T11:40:54.802Z,64.47
2022-12-18T11:43:32.643Z,64.14
2022-12-18T11:46:12.421Z,64.61
2022-12-18T11:49:07.445Z,65.31
2022-12-18T11:51:50.155Z,65.76
2022-12-18T11:54:17.640Z,65.53
2022-12-18T11:57:05.252Z,63.57
2022-12-18T11:59:37.022Z,65.06
2022-12-18T12:02:45.954Z,63.77
2022-12-18T12:05:15.891Z,61.30
2022-12-18T12:07:48.422Z,62.73
2022-12-18T12:10:27.145Z,62.76
2022-12-18T12:13:14.813Z,61.93
2022-12-18T12:16:05.551Z,62.21
2022-12-18T12:18:43.992Z,62.86
2022-12-18T12:21:22.998Z,62.35
2022-12-18T12:23:52.431Z,63.53
2022-12-18T12:26:42.158Z,59.63
2022-12-18T12:29:30.627Z,60.20
2022-12-18T12:32:12.595Z,59.75
2022-12-18T12:34:45.224Z,59.14
2022-12-18T12:37:37.540Z,57.05
2022-12-18T12:40:41.024Z,58.19
2022-12-18T12:43:19.212Z,60.65
2022-12-18T12:46:08.365Z,61.99
2022-12-18T12:48:50.249Z,62.46
2022-12-18T12:51:19.643Z,58.89
2022-12-18T12:53:49.931Z,61.04
2022-12-18T12:56:19.848Z,60.64
2022-12-18T12:59:25.910Z,60.45
2022-12-18T13:01:55.750Z,62.30
2022-12-18T13:04:31.092Z,63.55
2022-12-18T13:07:00.670Z,64.26
2022-12-18T13:09:35.005Z,64.10
2022-12-18T13:12:30.606Z,64.20
2022-12-18T13:15:23.472Z,65.65
2022-12-18T13:17:50.175Z,66.12
2022-12-18T13:20:17.404Z,65.70
2022-12-18T13:22:48.227Z,66.81
2022-12-18T13:25:36.547Z,66.55
2022-12-18T13:28:09.715Z,68.04
2022-12-18T13:30:36.243Z,67.71
2022-12-18T13:33:15.532Z,67.95
2022-12-18T13:35:49.030Z,69.02
2022-12-18T13:38:24.826Z,67.79
2022-12-18T13:40:51.338Z,67.82
2022-12-18T13:43:21.143Z,67.42
2022-12-18T13:46:00.201Z,67.30
2022-12-18T13:48:28.659Z,67.99
2022-12-18T13:51:08.047Z,69.40
2022-12-18T13:53:40.081Z,78.31
2022-12-18T13:56:11.913Z,69.63
2022-12-18T13:58:38.852Z,68.52
2022-12-18T14:01:06.190Z,69.66
2022-12-18T14:03:33.164Z,67.96
2022-12-18T14:06:13.619Z,79.51
2022-12-18T14:08:45.053Z,71.95
2022-12-18T14:11:23.321Z,66.60
2022-12-18T14:13:53.216Z,66.06
2022-12-18T14:16:23.126Z,66.36
2022-12-18T14:19:05.545Z,67.36
2022-12-18T14:21:38.464Z,67.41
2022-12-18T14:24:19.740Z,68.00
2022-12-18T14:26:48.411Z,70.83
2022-12-18T14:29:25.671Z,66.44
2022-12-18T14:32:18.891Z,66.13
2022-12-18T14:34:56.564Z,67.24
2022-12-18T14:37:30.612Z,68.25
2022-12-18T14:40:10.513Z,70.14
2022-12-18T14:42:40.267Z,71.54
2022-12-18T14:45:43.696Z,67.05
2022-12-18T14:48:22.997Z,68.07
2022-12-18T14:51:04.687Z,68.20
2022-12-18T14:53:34.557Z,67.50
2022-12-18T14:56:02.174Z,67.51
2022-12-18T14:58:33.517Z,67.53
2022-12-18T15:01:02.665Z,68.12
2022-12-18T15:03:29.575Z,68.15
2022-12-18T15:05:58.961Z,67.87
2022-12-18T15:08:35.437Z,68.50
2022-12-18T15:11:02.127Z,68.14
2022-12-18T15:13:29.946Z,68.22
2022-12-18T15:16:03.990Z,70.35
2022-12-18T15:18:42.580Z,68.59
2022-12-18T15:21:14.799Z,69.14
2022-12-18T15:23:47.481Z,69.18
2022-12-18T15:26:17.119Z,68.59
2022-12-18T15:28:52.122Z,68.80
2022-12-18T15:31:18.661Z,68.69
2022-12-18T15:33:53.981Z,69.40
2022-12-18T15:36:27.037Z,69.68
2022-12-18T15:39:00.943Z,71.14
2022-12-18T15:41:35.782Z,70.90
2022-12-18T15:44:03.020Z,70.71
2022-12-18T15:46:33.005Z,71.10
2022-12-18T15:49:03.559Z,72.11
2022-12-18T15:51:37.701Z,71.04
2022-12-18T15:54:07.400Z,88.30
2022-12-18T15:56:54.961Z,89.94
2022-12-18T15:59:21.759Z,71.29
2022-12-18T16:01:52.207Z,67.75
2022-12-18T16:04:24.657Z,67.44
